createdAt,value
2018-12-29T00:00:26.483Z,17.70
2018-12-29T00:02:52.734Z,18.67
2018-12-29T00:05:19.719Z,17.83
2018-12-29T00:07:45.958Z,18.90
2018-12-29T00:10:12.226Z,18.23
2018-12-29T00:12:39.214Z,17.03
2018-12-29T00:15:06.247Z,17.73
2018-12-29T00:17:33.312Z,16.80
2018-12-29T00:20:00.227Z,17.83
2018-12-29T00:22:26.504Z,18.37
2018-12-29T00:24:52.772Z,18.53
2018-12-29T00:27:19.007Z,18.07
2018-12-29T00:29:46.008Z,18.90
2018-12-29T00:32:12.263Z,18.23
2018-12-29T00:34:38.517Z,18.43
2018-12-29T00:37:05.504Z,18.87
2018-12-29T00:39:31.807Z,19.00
2018-12-29T00:41:58.180Z,17.33
2018-12-29T00:44:25.123Z,17.83
2018-12-29T00:46:51.394Z,17.80
2018-12-29T00:49:18.424Z,18.50
2018-12-29T00:51:44.664Z,17.67
2018-12-29T00:54:10.956Z,19.40
2018-12-29T00:56:38.004Z,18.93
2018-12-29T00:59:04.828Z,17.93
2018-12-29T01:01:31.097Z,17.77
2018-12-29T01:03:58.084Z,19.67
2018-12-29T01:06:24.343Z,17.70
2018-12-29T01:08:50.680Z,19.73
2018-12-29T01:11:16.955Z,18.30
2018-12-29T01:13:43.973Z,17.80
2018-12-29T01:16:10.788Z,19.50
2018-12-29T01:18:38.507Z,19.40
2018-12-29T01:21:05.528Z,18.37
2018-12-29T01:23:31.741Z,18.40
2018-12-29T01:25:57.975Z,18.83
2018-12-29T01:28:24.465Z,19.70
2018-12-29T01:30:50.740Z,19.93
2018-12-29T01:33:16.977Z,19.27
2018-12-29T01:35:43.976Z,20.97
2018-12-29T01:38:10.240Z,18.63
2018-12-29T01:40:38.155Z,17.87
2018-12-29T01:43:04.448Z,18.97
2018-12-29T01:45:30.764Z,20.60
2018-12-29T01:47:57.028Z,18.57
2018-12-29T01:50:23.264Z,17.23
2018-12-29T01:52:49.533Z,17.57
2018-12-29T01:55:15.780Z,15.53
2018-12-29T01:57:42.009Z,18.67
2018-12-29T02:00:08.375Z,17.70
2018-12-29T02:02:34.681Z,16.60
2018-12-29T02:05:00.932Z,17.47
2018-12-29T02:07:27.191Z,18.13
2018-12-29T02:09:53.440Z,18.20
2018-12-29T02:12:19.689Z,18.13
2018-12-29T02:14:46.676Z,16.33
2018-12-29T02:17:12.880Z,17.83
2018-12-29T02:19:39.396Z,17.67
2018-12-29T02:22:06.365Z,16.67
2018-12-29T02:24:32.592Z,17.97
2018-12-29T02:26:58.841Z,16.57
2018-12-29T02:29:25.064Z,18.30
2018-12-29T02:31:51.303Z,17.60
2018-12-29T02:34:17.889Z,18.00
2018-12-29T02:36:44.881Z,16.90
2018-12-29T02:39:11.094Z,16.90
2018-12-29T02:41:37.334Z,18.70
2018-12-29T02:44:03.593Z,18.77
2018-12-29T02:46:29.934Z,18.30
2018-12-29T02:48:56.189Z,16.70
2018-12-29T02:51:22.420Z,17.60
2018-12-29T02:53:48.661Z,17.63
2018-12-29T02:56:14.916Z,18.03
2018-12-29T02:58:41.136Z,17.33
2018-12-29T03:01:07.352Z,17.67
2018-12-29T03:03:33.761Z,18.40
2018-12-29T03:06:00.057Z,19.43
2018-12-29T03:08:27.045Z,18.87
2018-12-29T03:10:53.269Z,18.73
2018-12-29T03:13:19.480Z,18.40
2018-12-29T03:15:46.696Z,18.00
2018-12-29T03:18:12.924Z,18.80
2018-12-29T03:20:39.153Z,17.93
2018-12-29T03:23:05.407Z,17.40
2018-12-29T03:25:32.371Z,18.20
2018-12-29T03:27:58.861Z,17.87
2018-12-29T03:30:25.106Z,17.17
2018-12-29T03:32:52.810Z,17.47
2018-12-29T03:35:19.084Z,18.57
2018-12-29T03:37:45.325Z,18.23
2018-12-29T03:40:11.571Z,18.03
2018-12-29T03:42:38.092Z,19.63
2018-12-29T03:45:04.404Z,18.10
2018-12-29T03:47:30.615Z,17.90
2018-12-29T03:49:56.860Z,18.03
2018-12-29T03:52:23.090Z,19.43
2018-12-29T03:54:49.331Z,18.97
2018-12-29T03:57:16.299Z,18.67
2018-12-29T03:59:42.525Z,17.80
2018-12-29T04:02:08.736Z,18.63
2018-12-29T04:04:35.707Z,19.40
2018-12-29T04:07:01.965Z,19.47
2018-12-29T04:09:29.132Z,19.73
2018-12-29T04:11:55.368Z,18.30
2018-12-29T04:14:21.577Z,18.93
2018-12-29T04:16:47.850Z,18.73
2018-12-29T04:19:14.101Z,18.47
2018-12-29T04:21:40.316Z,18.00
2018-12-29T04:24:06.820Z,18.70
2018-12-29T04:26:33.780Z,19.20
2018-12-29T04:29:00.015Z,19.77
2018-12-29T04:31:26.809Z,17.97
2018-12-29T04:33:53.036Z,20.20
2018-12-29T04:36:20.315Z,20.03
2018-12-29T04:38:47.276Z,19.43
2018-12-29T04:41:13.506Z,19.70
2018-12-29T04:43:39.751Z,19.50
2018-12-29T04:46:06.012Z,20.13
2018-12-29T04:48:32.269Z,19.43
2018-12-29T04:50:58.572Z,20.07
2018-12-29T04:53:24.812Z,18.87
2018-12-29T04:55:51.125Z,19.27
2018-12-29T04:58:18.127Z,19.03
2018-12-29T05:00:44.356Z,18.57
2018-12-29T05:03:10.589Z,17.20
2018-12-29T05:05:36.805Z,18.00
2018-12-29T05:08:03.103Z,18.43
2018-12-29T05:10:29.337Z,19.57
2018-12-29T05:12:56.290Z,18.03
2018-12-29T05:15:23.271Z,18.43
2018-12-29T05:17:49.492Z,18.73
2018-12-29T05:20:15.744Z,19.07
2018-12-29T05:22:41.976Z,19.27
2018-12-29T05:25:08.208Z,18.87
2018-12-29T05:27:34.443Z,19.27
2018-12-29T05:30:00.667Z,18.80
2018-12-29T05:32:26.879Z,19.50
2018-12-29T05:34:53.112Z,19.87
2018-12-29T05:37:19.352Z,19.37
2018-12-29T05:39:47.168Z,17.70
2018-12-29T05:42:13.384Z,19.90
2018-12-29T05:44:39.655Z,18.57
2018-12-29T05:47:05.883Z,19.50
2018-12-29T05:49:32.133Z,19.23
2018-12-29T05:51:58.356Z,20.07
2018-12-29T05:54:24.606Z,22.00
2018-12-29T05:56:50.872Z,20.70
2018-12-29T05:59:17.103Z,21.00
2018-12-29T06:01:43.317Z,21.20
2018-12-29T06:04:09.546Z,20.47
2018-12-29T06:06:35.805Z,20.57
2018-12-29T06:09:02.452Z,23.00
2018-12-29T06:11:28.712Z,23.23
2018-12-29T06:13:55.931Z,23.10
2018-12-29T06:16:27.642Z,23.43
2018-12-29T06:18:49.132Z,22.23
2018-12-29T06:21:15.441Z,23.30
2018-12-29T06:23:41.630Z,21.33
2018-12-29T06:26:07.875Z,21.77
2018-12-29T06:28:34.110Z,22.37
2018-12-29T06:31:01.107Z,22.77
2018-12-29T06:33:27.360Z,22.53
2018-12-29T06:35:53.644Z,22.50
2018-12-29T06:38:19.880Z,21.80
2018-12-29T06:40:46.109Z,23.57
2018-12-29T06:43:12.639Z,21.87
2018-12-29T06:45:38.939Z,22.93
2018-12-29T06:48:05.158Z,23.03
2018-12-29T06:50:31.723Z,21.90
2018-12-29T06:52:57.950Z,23.77
2018-12-29T06:55:24.919Z,23.33
2018-12-29T06:57:51.429Z,22.13
2018-12-29T07:00:18.377Z,22.23
2018-12-29T07:02:45.349Z,22.27
2018-12-29T07:05:11.815Z,22.83
2018-12-29T07:07:38.812Z,24.17
2018-12-29T07:10:05.069Z,22.00
2018-12-29T07:12:31.335Z,21.57
2018-12-29T07:14:58.297Z,24.03
2018-12-29T07:17:24.552Z,22.77
2018-12-29T07:19:50.774Z,23.40
2018-12-29T07:22:16.998Z,22.20
2018-12-29T07:24:43.247Z,21.97
2018-12-29T07:27:09.480Z,23.73
2018-12-29T07:29:38.364Z,22.90
2018-12-29T07:32:02.000Z,22.63
2018-12-29T07:34:28.272Z,22.77
2018-12-29T07:36:54.528Z,22.73
2018-12-29T07:39:20.802Z,22.03
2018-12-29T07:41:47.045Z,22.73
2018-12-29T07:44:13.304Z,23.37
2018-12-29T07:46:39.671Z,22.87
2018-12-29T07:49:05.917Z,23.47
2018-12-29T07:51:32.127Z,23.03
2018-12-29T07:53:58.395Z,22.00
2018-12-29T07:56:24.612Z,22.60
2018-12-29T07:58:50.848Z,22.17
2018-12-29T08:01:17.104Z,22.53
2018-12-29T08:03:44.126Z,23.07
2018-12-29T08:06:10.328Z,22.90
2018-12-29T08:08:36.564Z,22.60
2018-12-29T08:11:03.723Z,23.93
2018-12-29T08:13:30.772Z,23.67
2018-12-29T08:15:57.027Z,22.10
2018-12-29T08:18:23.273Z,23.23
2018-12-29T08:20:49.593Z,22.63
2018-12-29T08:23:16.632Z,22.97
2018-12-29T08:25:43.142Z,23.30
2018-12-29T08:28:09.445Z,23.60
2018-12-29T08:30:35.703Z,23.43
2018-12-29T08:33:03.093Z,22.87
2018-12-29T08:35:30.022Z,23.23
2018-12-29T08:37:56.273Z,23.77
2018-12-29T08:40:22.576Z,23.30
2018-12-29T08:42:48.858Z,23.00
2018-12-29T08:45:15.197Z,23.23
2018-12-29T08:47:41.456Z,22.80
2018-12-29T08:50:12.923Z,23.53
2018-12-29T08:52:35.855Z,23.03
2018-12-29T08:55:02.848Z,22.07
2018-12-29T08:57:29.092Z,21.87
2018-12-29T08:59:55.378Z,22.07
2018-12-29T09:02:21.738Z,23.17
2018-12-29T09:04:48.024Z,23.47
2018-12-29T09:07:14.312Z,22.37
2018-12-29T09:09:40.658Z,23.17
2018-12-29T09:12:06.956Z,21.50
2018-12-29T09:14:33.229Z,22.27
2018-12-29T09:16:59.587Z,21.90
2018-12-29T09:19:27.341Z,21.03
2018-12-29T09:21:52.193Z,19.50
2018-12-29T09:24:18.548Z,21.30
2018-12-29T09:26:44.843Z,22.17
2018-12-29T09:29:11.916Z,22.33
2018-12-29T09:31:38.921Z,22.13
2018-12-29T09:34:05.165Z,21.07
2018-12-29T09:36:31.416Z,20.90
2018-12-29T09:38:57.865Z,20.53
2018-12-29T09:41:24.152Z,21.43
2018-12-29T09:43:50.396Z,18.30
2018-12-29T09:46:16.687Z,20.43
2018-12-29T09:48:42.953Z,20.13
2018-12-29T09:51:10.222Z,20.90
2018-12-29T09:53:37.213Z,20.33
2018-12-29T09:56:03.535Z,19.50
2018-12-29T09:58:29.812Z,22.20
2018-12-29T10:00:56.064Z,21.13
2018-12-29T10:03:22.428Z,21.03
2018-12-29T10:05:48.704Z,20.03
2018-12-29T10:08:14.941Z,20.17
2018-12-29T10:10:41.191Z,20.23
2018-12-29T10:13:08.161Z,19.83
2018-12-29T10:15:34.383Z,19.97
2018-12-29T10:18:00.605Z,20.20
2018-12-29T10:20:26.856Z,18.90
2018-12-29T10:22:53.108Z,19.73
2018-12-29T10:25:19.369Z,19.37
2018-12-29T10:27:46.350Z,19.57
2018-12-29T10:30:12.616Z,20.20
2018-12-29T10:32:38.861Z,20.03
2018-12-29T10:35:06.275Z,20.47
2018-12-29T10:37:32.945Z,19.33
2018-12-29T10:39:59.413Z,20.03
2018-12-29T10:42:25.664Z,19.80
2018-12-29T10:44:53.472Z,19.63
2018-12-29T10:47:19.728Z,19.07
2018-12-29T10:49:45.949Z,19.33
2018-12-29T10:52:12.914Z,21.00
2018-12-29T10:54:40.002Z,19.53
2018-12-29T10:57:06.222Z,19.77
2018-12-29T10:59:33.048Z,20.40
2018-12-29T11:01:59.280Z,21.73
2018-12-29T11:04:25.525Z,20.27
2018-12-29T11:06:51.798Z,20.57
2018-12-29T11:09:18.056Z,21.43
2018-12-29T11:11:44.353Z,22.70
2018-12-29T11:14:11.313Z,21.23
2018-12-29T11:16:37.582Z,21.83
2018-12-29T11:19:03.837Z,21.67
2018-12-29T11:21:30.052Z,21.30
2018-12-29T11:23:56.515Z,21.53
2018-12-29T11:26:23.478Z,21.70
2018-12-29T11:28:49.715Z,21.73
2018-12-29T11:31:15.981Z,22.37
2018-12-29T11:33:42.198Z,20.73
2018-12-29T11:36:08.547Z,20.53
2018-12-29T11:38:35.522Z,20.97
2018-12-29T11:41:01.758Z,20.67
2018-12-29T11:43:28.006Z,20.67
2018-12-29T11:45:54.256Z,21.10
2018-12-29T11:48:20.502Z,22.63
2018-12-29T11:50:47.317Z,22.27
2018-12-29T11:53:13.603Z,22.03
2018-12-29T11:55:39.856Z,21.57
2018-12-29T11:58:06.120Z,20.97
2018-12-29T12:00:32.404Z,22.30
2018-12-29T12:02:58.652Z,22.20
2018-12-29T12:05:24.935Z,22.73
2018-12-29T12:07:52.013Z,22.63
2018-12-29T12:10:18.307Z,21.53
2018-12-29T12:12:44.608Z,24.07
2018-12-29T12:15:10.873Z,22.50
2018-12-29T12:17:37.140Z,22.50
2018-12-29T12:20:03.752Z,24.50
2018-12-29T12:22:30.109Z,22.80
2018-12-29T12:24:56.456Z,23.27
2018-12-29T12:27:23.460Z,23.27
2018-12-29T12:29:49.743Z,23.33
2018-12-29T12:32:16.823Z,22.80
2018-12-29T12:34:43.087Z,23.53
2018-12-29T12:37:09.346Z,22.87
2018-12-29T12:39:36.347Z,23.03
2018-12-29T12:42:03.367Z,22.87
2018-12-29T12:44:29.680Z,23.80
2018-12-29T12:46:56.048Z,23.87
2018-12-29T12:49:28.520Z,23.47
2018-12-29T12:52:01.602Z,24.17
2018-12-29T12:54:33.999Z,24.43
2018-12-29T12:57:06.514Z,24.37
2018-12-29T13:02:12.263Z,25.30
2018-12-29T13:04:45.748Z,22.97
2018-12-29T13:07:18.267Z,23.93
2018-12-29T13:09:51.504Z,23.97
2018-12-29T13:12:23.890Z,22.87
2018-12-29T13:14:56.183Z,24.00
2018-12-29T13:17:28.452Z,23.97
2018-12-29T13:19:54.738Z,24.07
2018-12-29T13:22:21.090Z,24.33
2018-12-29T13:24:48.019Z,23.70
2018-12-29T13:27:14.500Z,23.70
2018-12-29T13:29:40.731Z,23.60
2018-12-29T13:32:06.940Z,23.17
2018-12-29T13:34:33.160Z,24.10
2018-12-29T13:36:59.380Z,23.23
2018-12-29T13:39:25.568Z,24.17
2018-12-29T13:41:51.789Z,22.70
2018-12-29T13:44:18.749Z,22.17
2018-12-29T13:46:45.048Z,23.30
2018-12-29T13:49:12.216Z,22.93
2018-12-29T13:51:38.445Z,23.30
2018-12-29T13:54:04.658Z,23.50
2018-12-29T13:56:30.908Z,22.60
2018-12-29T13:58:57.160Z,22.93
2018-12-29T14:01:29.654Z,24.50
2018-12-29T14:03:55.927Z,24.97
2018-12-29T14:06:22.170Z,23.53
2018-12-29T14:08:48.952Z,22.87
2018-12-29T14:11:15.928Z,24.67
2018-12-29T14:13:42.155Z,25.57
2018-12-29T14:16:08.388Z,24.87
2018-12-29T14:18:34.618Z,25.20
2018-12-29T14:21:00.887Z,24.63
2018-12-29T14:23:27.440Z,25.87
2018-12-29T14:25:54.421Z,25.47
2018-12-29T14:28:20.669Z,24.97
2018-12-29T14:30:46.917Z,25.73
2018-12-29T14:33:13.203Z,26.73
2018-12-29T14:35:39.591Z,26.43
2018-12-29T14:38:05.908Z,26.63
2018-12-29T14:40:32.202Z,27.33
2018-12-29T14:42:58.570Z,27.67
2018-12-29T14:45:25.989Z,27.50
2018-12-29T14:47:52.252Z,28.47
2018-12-29T14:50:19.256Z,29.60
2018-12-29T14:52:45.500Z,29.93
2018-12-29T14:55:11.767Z,28.27
2018-12-29T14:57:38.032Z,27.77
2018-12-29T15:00:10.431Z,28.27
2018-12-29T15:02:43.579Z,26.87
2018-12-29T15:05:15.951Z,27.83
2018-12-29T15:07:48.418Z,28.50
2018-12-29T15:10:21.520Z,28.33
2018-12-29T15:12:54.562Z,28.17
2018-12-29T15:15:26.988Z,27.73
2018-12-29T15:17:59.491Z,28.67
2018-12-29T15:20:31.757Z,29.27
2018-12-29T15:23:05.185Z,28.60
2018-12-29T15:25:38.229Z,29.23
2018-12-29T15:28:10.551Z,27.80
2018-12-29T15:30:43.051Z,28.67
2018-12-29T15:33:15.516Z,28.53
2018-12-29T15:35:48.968Z,27.93
2018-12-29T15:38:21.444Z,27.70
2018-12-29T15:40:53.881Z,28.03
2018-12-29T15:43:26.383Z,26.90
2018-12-29T15:45:59.548Z,29.00
2018-12-29T15:48:31.814Z,27.23
2018-12-29T15:51:05.032Z,28.80
2018-12-29T15:53:37.419Z,27.20
2018-12-29T15:56:09.679Z,28.17
2018-12-29T15:58:42.825Z,28.63
2018-12-29T16:01:09.143Z,29.17
2018-12-29T16:03:35.393Z,29.10
2018-12-29T16:06:01.664Z,29.70
2018-12-29T16:08:28.685Z,29.13
2018-12-29T16:10:55.591Z,31.17
2018-12-29T16:13:21.843Z,30.67
2018-12-29T16:15:48.171Z,29.03
2018-12-29T16:18:14.444Z,30.43
2018-12-29T16:20:41.200Z,28.37
2018-12-29T16:23:09.088Z,29.60
2018-12-29T16:25:35.343Z,30.20
2018-12-29T16:28:01.612Z,27.97
2018-12-29T16:30:27.905Z,35.57
2018-12-29T16:32:54.172Z,30.17
2018-12-29T16:35:21.229Z,33.27
2018-12-29T16:37:48.305Z,29.50
2018-12-29T16:40:14.564Z,30.33
2018-12-29T16:42:40.809Z,29.93
2018-12-29T16:45:07.265Z,29.00
2018-12-29T16:47:33.527Z,29.63
2018-12-29T16:50:00.012Z,28.30
2018-12-29T16:52:27.268Z,28.47
2018-12-29T16:54:54.276Z,27.87
2018-12-29T16:57:20.520Z,28.93
2018-12-29T16:59:46.873Z,26.63
2018-12-29T17:02:13.163Z,29.27
2018-12-29T17:04:39.442Z,28.77
2018-12-29T17:07:05.816Z,29.93
2018-12-29T17:09:32.165Z,29.97
2018-12-29T17:11:58.436Z,31.03
2018-12-29T17:14:24.732Z,28.93
2018-12-29T17:16:51.014Z,33.07
2018-12-29T17:19:17.328Z,29.40
2018-12-29T17:21:43.568Z,27.33
2018-12-29T17:28:05.892Z,27.57
2018-12-29T17:30:32.994Z,26.80
2018-12-29T17:34:49.680Z,26.97
2018-12-29T17:38:47.994Z,25.47
2018-12-29T17:41:28.246Z,27.30
2018-12-29T17:44:07.729Z,26.10
2018-12-29T17:46:47.915Z,28.77
2018-12-29T17:49:28.098Z,26.97
2018-12-29T17:52:08.388Z,28.10
2018-12-29T17:54:48.580Z,27.07
2018-12-29T17:57:28.655Z,26.57
2018-12-29T18:00:08.559Z,28.13
2018-12-29T18:03:43.866Z,27.93
2018-12-29T18:06:24.381Z,27.67
2018-12-29T18:09:04.460Z,27.63
2018-12-29T18:11:30.887Z,26.03
2018-12-29T18:15:37.468Z,26.20
2018-12-29T18:18:17.656Z,26.57
2018-12-29T18:20:57.771Z,27.53
2018-12-29T18:23:37.905Z,27.50
2018-12-29T18:28:34.183Z,27.37
2018-12-29T18:31:14.270Z,26.33
2018-12-29T18:33:54.365Z,27.77
2018-12-29T18:36:34.453Z,26.60
2018-12-29T18:40:59.614Z,27.43
2018-12-29T18:43:39.434Z,25.77
2018-12-29T18:46:19.834Z,25.60
2018-12-29T18:49:00.646Z,24.13
2018-12-29T18:51:41.030Z,26.70
2018-12-29T18:54:21.358Z,27.20
2018-12-29T18:57:02.935Z,27.50
2018-12-29T18:59:44.414Z,26.40
2018-12-29T19:02:24.589Z,27.60
2018-12-29T19:05:04.723Z,26.63
2018-12-29T19:07:45.071Z,27.07
2018-12-29T19:10:25.258Z,26.10
2018-12-29T19:13:05.412Z,25.90
2018-12-29T19:15:46.918Z,25.87
2018-12-29T19:18:28.519Z,26.90
2018-12-29T19:21:09.110Z,27.60
2018-12-29T19:23:50.054Z,27.50
2018-12-29T19:26:31.184Z,28.10
2018-12-29T19:29:11.415Z,26.93
2018-12-29T19:31:52.578Z,26.33
2018-12-29T19:34:33.778Z,25.77
2018-12-29T19:37:14.935Z,26.57
2018-12-29T19:39:55.051Z,26.10
2018-12-29T19:42:37.366Z,26.80
2018-12-29T19:45:17.305Z,26.27
2018-12-29T19:47:45.505Z,27.70
2018-12-29T19:50:39.078Z,26.13
2018-12-29T19:53:20.547Z,26.47
2018-12-29T19:55:48.561Z,25.90
2018-12-29T19:58:16.214Z,26.30
2018-12-29T20:00:57.390Z,23.93
2018-12-29T20:03:37.411Z,24.87
2018-12-29T20:06:18.888Z,24.27
2018-12-29T20:08:59.124Z,25.10
2018-12-29T20:11:39.077Z,26.17
2018-12-29T20:14:21.715Z,25.20
2018-12-29T20:17:08.726Z,24.83
2018-12-29T20:20:09.717Z,23.37
2018-12-29T20:22:49.800Z,23.73
2018-12-29T20:28:09.902Z,23.30
2018-12-29T20:30:50.233Z,24.07
2018-12-29T20:33:30.199Z,23.00
2018-12-29T20:36:10.276Z,23.40
2018-12-29T20:38:50.340Z,23.03
2018-12-29T20:41:18.470Z,23.47
2018-12-29T20:43:58.569Z,23.30
2018-12-29T20:46:38.706Z,23.30
2018-12-29T20:49:18.728Z,22.17
2018-12-29T20:51:58.719Z,22.83
2018-12-29T20:54:41.939Z,22.47
2018-12-29T20:57:24.018Z,21.23
2018-12-29T20:59:51.943Z,22.70
2018-12-29T21:02:19.726Z,21.53
2018-12-29T21:04:47.525Z,22.17
2018-12-29T21:07:15.200Z,22.33
2018-12-29T21:09:43.310Z,23.20
2018-12-29T21:12:12.861Z,24.27
2018-12-29T21:14:40.829Z,21.50
2018-12-29T21:17:08.582Z,23.60
2018-12-29T21:19:36.275Z,23.30
2018-12-29T21:22:04.035Z,24.43
2018-12-29T21:24:31.930Z,24.07
2018-12-29T21:26:59.600Z,25.00
2018-12-29T21:29:27.361Z,25.17
2018-12-29T21:31:55.087Z,25.03
2018-12-29T21:34:22.820Z,24.53
2018-12-29T21:37:03.942Z,25.67
2018-12-29T21:39:44.190Z,27.03
2018-12-29T21:42:24.296Z,25.80
2018-12-29T21:45:04.410Z,26.33
2018-12-29T21:47:44.525Z,26.47
2018-12-29T21:50:26.802Z,24.47
2018-12-29T21:53:06.940Z,27.27
2018-12-29T21:55:47.157Z,27.67
2018-12-29T21:58:29.229Z,26.63
2018-12-29T22:01:09.518Z,26.63
2018-12-29T22:03:49.416Z,25.93
2018-12-29T22:06:29.640Z,28.50
2018-12-29T22:09:09.655Z,26.67
2018-12-29T22:11:49.739Z,26.90
2018-12-29T22:14:30.057Z,27.60
2018-12-29T22:17:13.833Z,28.40
2018-12-29T22:19:54.539Z,28.50
2018-12-29T22:22:35.113Z,26.97
2018-12-29T22:25:15.318Z,27.63
2018-12-29T22:27:55.701Z,28.27
2018-12-29T22:30:36.639Z,27.87
2018-12-29T22:33:16.866Z,28.43
2018-12-29T22:35:57.048Z,27.90
2018-12-29T22:38:37.291Z,27.97
2018-12-29T22:41:19.507Z,25.33
2018-12-29T22:44:01.812Z,27.13
2018-12-29T22:46:42.153Z,27.07
2018-12-29T22:49:22.624Z,26.23
2018-12-29T22:51:50.505Z,25.87
2018-12-29T22:54:31.230Z,28.67
2018-12-29T22:57:14.262Z,25.50
2018-12-29T22:59:54.551Z,26.60
2018-12-29T23:02:34.798Z,26.47
2018-12-29T23:05:15.559Z,28.53
2018-12-29T23:07:55.915Z,27.03
2018-12-29T23:10:35.985Z,28.37
2018-12-29T23:13:16.338Z,24.97
2018-12-29T23:15:56.126Z,26.07
2018-12-29T23:18:36.086Z,26.90
2018-12-29T23:21:16.459Z,26.97
2018-12-29T23:23:56.719Z,25.20
2018-12-29T23:26:36.958Z,24.97
2018-12-29T23:29:16.946Z,25.90
2018-12-29T23:31:57.151Z,25.83
2018-12-29T23:34:37.297Z,27.37
2018-12-29T23:37:17.417Z,26.20
2018-12-29T23:39:57.511Z,27.77
2018-12-29T23:42:37.679Z,26.40
2018-12-29T23:45:19.690Z,26.73
2018-12-29T23:48:03.346Z,26.57
2018-12-29T23:50:43.786Z,29.17
2018-12-29T23:53:24.002Z,25.97
2018-12-29T23:55:52.070Z,26.80
2018-12-29T23:58:39.211Z,25.30
